sensor_id;sensor_type;location;lat;lon;timestamp;temperature;humidity
9772;DHT22;4925;52.588;13.370;2022-10-26T00:00:46;10.40;99.90
9772;DHT22;4925;52.588;13.370;2022-10-26T00:03:12;10.40;99.90
9772;DHT22;4925;52.588;13.370;2022-10-26T00:05:38;10.40;99.90
9772;DHT22;4925;52.588;13.370;2022-10-26T00:08:04;10.40;99.90
9772;DHT22;4925;52.588;13.370;2022-10-26T00:10:30;10.40;99.90
9772;DHT22;4925;52.588;13.370;2022-10-26T00:12:57;10.40;99.90
9772;DHT22;4925;52.588;13.370;2022-10-26T00:15:23;10.40;99.90
9772;DHT22;4925;52.588;13.370;2022-10-26T00:17:51;10.40;99.90
9772;DHT22;4925;52.588;13.370;2022-10-26T00:20:17;10.40;99.90
9772;DHT22;4925;52.588;13.370;2022-10-26T00:22:42;10.30;99.90
9772;DHT22;4925;52.588;13.370;2022-10-26T00:25:08;10.30;99.90
9772;DHT22;4925;52.588;13.370;2022-10-26T00:27:34;10.30;99.90
9772;DHT22;4925;52.588;13.370;2022-10-26T00:30:00;10.30;99.90
9772;DHT22;4925;52.588;13.370;2022-10-26T00:32:26;10.20;99.90
9772;DHT22;4925;52.588;13.370;2022-10-26T00:34:52;10.20;99.90
9772;DHT22;4925;52.588;13.370;2022-10-26T00:37:18;10.20;99.90
9772;DHT22;4925;52.588;13.370;2022-10-26T00:39:43;10.20;99.90
9772;DHT22;4925;52.588;13.370;2022-10-26T00:42:16;10.20;99.90
9772;DHT22;4925;52.588;13.370;2022-10-26T00:50:04;10.20;99.90
9772;DHT22;4925;52.588;13.370;2022-10-26T00:52:31;10.20;99.90
9772;DHT22;4925;52.588;13.370;2022-10-26T00:54:57;10.20;99.90
9772;DHT22;4925;52.588;13.370;2022-10-26T00:57:23;10.20;99.90
9772;DHT22;4925;52.588;13.370;2022-10-26T00:59:50;10.10;99.90
9772;DHT22;4925;52.588;13.370;2022-10-26T01:02:18;10.10;99.90
9772;DHT22;4925;52.588;13.370;2022-10-26T01:04:45;10.10;99.90
9772;DHT22;4925;52.588;13.370;2022-10-26T01:07:11;10.10;99.90
9772;DHT22;4925;52.588;13.370;2022-10-26T01:09:38;10.10;99.90
9772;DHT22;4925;52.588;13.370;2022-10-26T01:12:04;10.00;99.90
9772;DHT22;4925;52.588;13.370;2022-10-26T01:14:30;10.00;99.90
9772;DHT22;4925;52.588;13.370;2022-10-26T01:17:21;10.00;99.90
9772;DHT22;4925;52.588;13.370;2022-10-26T01:22:35;9.90;99.90
9772;DHT22;4925;52.588;13.370;2022-10-26T01:25:15;9.90;99.90
9772;DHT22;4925;52.588;13.370;2022-10-26T01:27:46;9.90;99.90
9772;DHT22;4925;52.588;13.370;2022-10-26T01:41:28;9.70;99.90
9772;DHT22;4925;52.588;13.370;2022-10-26T01:43:58;9.60;99.90
9772;DHT22;4925;52.588;13.370;2022-10-26T01:46:27;9.60;99.90
9772;DHT22;4925;52.588;13.370;2022-10-26T01:48:58;9.60;99.90
9772;DHT22;4925;52.588;13.370;2022-10-26T01:51:26;9.50;99.90
9772;DHT22;4925;52.588;13.370;2022-10-26T01:53:52;9.50;99.90
9772;DHT22;4925;52.588;13.370;2022-10-26T01:56:21;9.50;99.90
9772;DHT22;4925;52.588;13.370;2022-10-26T01:59:16;9.50;99.90
9772;DHT22;4925;52.588;13.370;2022-10-26T02:01:58;9.50;99.90
9772;DHT22;4925;52.588;13.370;2022-10-26T02:15:02;9.30;99.90
9772;DHT22;4925;52.588;13.370;2022-10-26T02:17:41;9.30;99.90
9772;DHT22;4925;52.588;13.370;2022-10-26T02:20:16;9.30;99.90
9772;DHT22;4925;52.588;13.370;2022-10-26T02:22:46;9.20;99.90
9772;DHT22;4925;52.588;13.370;2022-10-26T02:25:21;9.20;99.90
9772;DHT22;4925;52.588;13.370;2022-10-26T02:27:50;9.20;99.90
9772;DHT22;4925;52.588;13.370;2022-10-26T02:30:18;9.20;99.90
9772;DHT22;4925;52.588;13.370;2022-10-26T02:32:47;9.10;99.90
9772;DHT22;4925;52.588;13.370;2022-10-26T02:35:14;9.10;99.90
9772;DHT22;4925;52.588;13.370;2022-10-26T02:37:43;9.10;99.90
9772;DHT22;4925;52.588;13.370;2022-10-26T02:40:18;9.10;99.90
9772;DHT22;4925;52.588;13.370;2022-10-26T02:42:45;9.10;99.90
9772;DHT22;4925;52.588;13.370;2022-10-26T02:45:16;9.10;99.90
9772;DHT22;4925;52.588;13.370;2022-10-26T02:47:43;9.10;99.90
9772;DHT22;4925;52.588;13.370;2022-10-26T02:50:09;9.00;99.90
9772;DHT22;4925;52.588;13.370;2022-10-26T02:55:22;9.00;99.90
9772;DHT22;4925;52.588;13.370;2022-10-26T02:57:59;9.00;99.90
9772;DHT22;4925;52.588;13.370;2022-10-26T03:00:25;8.90;99.90
9772;DHT22;4925;52.588;13.370;2022-10-26T03:02:54;8.90;99.90
9772;DHT22;4925;52.588;13.370;2022-10-26T03:05:29;8.90;99.90
9772;DHT22;4925;52.588;13.370;2022-10-26T03:07:57;8.90;99.90
9772;DHT22;4925;52.588;13.370;2022-10-26T03:10:23;8.90;99.90
9772;DHT22;4925;52.588;13.370;2022-10-26T03:12:48;8.80;99.90
9772;DHT22;4925;52.588;13.370;2022-10-26T03:15:14;8.80;99.90
9772;DHT22;4925;52.588;13.370;2022-10-26T03:17:40;8.80;99.90
9772;DHT22;4925;52.588;13.370;2022-10-26T03:20:07;8.80;99.90
9772;DHT22;4925;52.588;13.370;2022-10-26T03:22:32;8.70;99.90
9772;DHT22;4925;52.588;13.370;2022-10-26T03:24:58;8.70;99.90
9772;DHT22;4925;52.588;13.370;2022-10-26T03:27:23;9.40;99.90
9772;DHT22;4925;52.588;13.370;2022-10-26T03:29:49;8.70;99.90
9772;DHT22;4925;52.588;13.370;2022-10-26T03:32:14;8.70;99.90
9772;DHT22;4925;52.588;13.370;2022-10-26T03:34:40;8.70;99.90
9772;DHT22;4925;52.588;13.370;2022-10-26T03:37:05;8.70;99.90
9772;DHT22;4925;52.588;13.370;2022-10-26T03:39:31;8.60;99.90
9772;DHT22;4925;52.588;13.370;2022-10-26T03:41:57;8.60;99.90
9772;DHT22;4925;52.588;13.370;2022-10-26T03:44:22;8.60;99.90
9772;DHT22;4925;52.588;13.370;2022-10-26T03:46:48;8.60;99.90
9772;DHT22;4925;52.588;13.370;2022-10-26T03:49:13;8.50;99.90
9772;DHT22;4925;52.588;13.370;2022-10-26T03:51:39;8.50;99.90
9772;DHT22;4925;52.588;13.370;2022-10-26T03:54:04;8.50;99.90
9772;DHT22;4925;52.588;13.370;2022-10-26T03:56:30;8.50;99.90
9772;DHT22;4925;52.588;13.370;2022-10-26T03:58:56;8.50;99.90
9772;DHT22;4925;52.588;13.370;2022-10-26T04:01:21;8.50;99.90
9772;DHT22;4925;52.588;13.370;2022-10-26T04:03:47;8.50;99.90
9772;DHT22;4925;52.588;13.370;2022-10-26T04:06:13;8.50;99.90
9772;DHT22;4925;52.588;13.370;2022-10-26T04:08:41;8.40;99.90
9772;DHT22;4925;52.588;13.370;2022-10-26T04:13:33;8.40;99.90
9772;DHT22;4925;52.588;13.370;2022-10-26T04:15:58;8.40;99.90
9772;DHT22;4925;52.588;13.370;2022-10-26T04:18:24;8.40;99.90
9772;DHT22;4925;52.588;13.370;2022-10-26T04:20:50;8.30;99.90
9772;DHT22;4925;52.588;13.370;2022-10-26T04:23:16;8.30;99.90
9772;DHT22;4925;52.588;13.370;2022-10-26T04:25:43;8.90;99.90
9772;DHT22;4925;52.588;13.370;2022-10-26T04:28:10;8.20;99.90
9772;DHT22;4925;52.588;13.370;2022-10-26T04:30:37;8.20;99.90
9772;DHT22;4925;52.588;13.370;2022-10-26T04:33:04;8.30;99.90
9772;DHT22;4925;52.588;13.370;2022-10-26T04:35:30;8.20;99.90
9772;DHT22;4925;52.588;13.370;2022-10-26T04:38:03;8.20;99.90
9772;DHT22;4925;52.588;13.370;2022-10-26T04:40:30;8.20;99.90
9772;DHT22;4925;52.588;13.370;2022-10-26T04:42:56;8.20;99.90
9772;DHT22;4925;52.588;13.370;2022-10-26T04:45:22;8.20;99.90
9772;DHT22;4925;52.588;13.370;2022-10-26T04:47:57;8.30;99.90
9772;DHT22;4925;52.588;13.370;2022-10-26T04:50:22;8.50;99.90
9772;DHT22;4925;52.588;13.370;2022-10-26T04:52:49;8.70;99.90
9772;DHT22;4925;52.588;13.370;2022-10-26T04:55:15;8.80;99.90
9772;DHT22;4925;52.588;13.370;2022-10-26T04:57:43;8.90;99.90
9772;DHT22;4925;52.588;13.370;2022-10-26T05:00:09;9.00;99.90
9772;DHT22;4925;52.588;13.370;2022-10-26T05:02:35;9.10;99.90
9772;DHT22;4925;52.588;13.370;2022-10-26T05:05:01;9.00;99.90
9772;DHT22;4925;52.588;13.370;2022-10-26T05:07:26;9.00;99.90
9772;DHT22;4925;52.588;13.370;2022-10-26T05:09:52;9.40;99.90
9772;DHT22;4925;52.588;13.370;2022-10-26T05:12:17;8.80;99.90
9772;DHT22;4925;52.588;13.370;2022-10-26T05:14:43;8.80;99.90
9772;DHT22;4925;52.588;13.370;2022-10-26T05:17:09;8.80;99.90
9772;DHT22;4925;52.588;13.370;2022-10-26T05:19:34;10.10;99.90
9772;DHT22;4925;52.588;13.370;2022-10-26T05:22:00;8.60;99.90
9772;DHT22;4925;52.588;13.370;2022-10-26T05:24:25;8.60;99.90
9772;DHT22;4925;52.588;13.370;2022-10-26T05:26:51;8.50;99.90
9772;DHT22;4925;52.588;13.370;2022-10-26T05:29:16;8.40;99.90
9772;DHT22;4925;52.588;13.370;2022-10-26T05:31:42;8.30;99.90
9772;DHT22;4925;52.588;13.370;2022-10-26T05:34:08;8.30;99.90
9772;DHT22;4925;52.588;13.370;2022-10-26T05:36:33;8.30;99.90
9772;DHT22;4925;52.588;13.370;2022-10-26T05:38:59;8.20;99.90
9772;DHT22;4925;52.588;13.370;2022-10-26T05:41:24;8.20;99.90
9772;DHT22;4925;52.588;13.370;2022-10-26T05:43:50;8.10;99.90
9772;DHT22;4925;52.588;13.370;2022-10-26T05:46:16;8.10;99.90
9772;DHT22;4925;52.588;13.370;2022-10-26T05:48:41;8.10;99.90
9772;DHT22;4925;52.588;13.370;2022-10-26T05:51:07;8.10;99.90
9772;DHT22;4925;52.588;13.370;2022-10-26T05:53:32;8.40;99.90
9772;DHT22;4925;52.588;13.370;2022-10-26T05:55:58;8.10;99.90
9772;DHT22;4925;52.588;13.370;2022-10-26T05:58:24;8.00;99.90
9772;DHT22;4925;52.588;13.370;2022-10-26T06:01:26;8.00;99.90
9772;DHT22;4925;52.588;13.370;2022-10-26T06:06:45;8.10;99.90
9772;DHT22;4925;52.588;13.370;2022-10-26T06:09:12;8.80;99.90
9772;DHT22;4925;52.588;13.370;2022-10-26T06:11:38;8.20;99.90
9772;DHT22;4925;52.588;13.370;2022-10-26T06:14:04;8.40;99.90
9772;DHT22;4925;52.588;13.370;2022-10-26T06:16:49;8.70;99.90
9772;DHT22;4925;52.588;13.370;2022-10-26T06:19:46;8.80;99.90
9772;DHT22;4925;52.588;13.370;2022-10-26T06:27:46;8.60;99.90
9772;DHT22;4925;52.588;13.370;2022-10-26T06:30:13;8.60;99.90
9772;DHT22;4925;52.588;13.370;2022-10-26T06:32:42;8.60;99.90
9772;DHT22;4925;52.588;13.370;2022-10-26T06:35:19;8.60;99.90
9772;DHT22;4925;52.588;13.370;2022-10-26T06:37:49;8.70;99.90
9772;DHT22;4925;52.588;13.370;2022-10-26T06:40:16;8.70;99.90
9772;DHT22;4925;52.588;13.370;2022-10-26T06:42:43;8.70;99.90
9772;DHT22;4925;52.588;13.370;2022-10-26T06:45:16;8.80;99.90
9772;DHT22;4925;52.588;13.370;2022-10-26T06:55:47;9.00;99.90
9772;DHT22;4925;52.588;13.370;2022-10-26T06:58:19;9.10;99.90
9772;DHT22;4925;52.588;13.370;2022-10-26T07:00:48;9.20;99.90
9772;DHT22;4925;52.588;13.370;2022-10-26T07:03:15;9.20;99.90
9772;DHT22;4925;52.588;13.370;2022-10-26T07:05:42;9.20;99.90
9772;DHT22;4925;52.588;13.370;2022-10-26T07:08:08;9.20;99.90
9772;DHT22;4925;52.588;13.370;2022-10-26T07:10:33;9.20;99.90
9772;DHT22;4925;52.588;13.370;2022-10-26T07:13:10;9.30;99.90
9772;DHT22;4925;52.588;13.370;2022-10-26T07:15:36;9.40;99.90
9772;DHT22;4925;52.588;13.370;2022-10-26T07:18:03;9.40;99.90
9772;DHT22;4925;52.588;13.370;2022-10-26T07:20:37;9.50;99.90
9772;DHT22;4925;52.588;13.370;2022-10-26T07:23:03;9.60;99.90
9772;DHT22;4925;52.588;13.370;2022-10-26T07:25:31;9.80;99.90
9772;DHT22;4925;52.588;13.370;2022-10-26T07:27:58;9.90;99.90
9772;DHT22;4925;52.588;13.370;2022-10-26T07:30:24;10.00;99.90
9772;DHT22;4925;52.588;13.370;2022-10-26T07:32:50;10.20;99.90
9772;DHT22;4925;52.588;13.370;2022-10-26T07:35:22;10.30;99.90
9772;DHT22;4925;52.588;13.370;2022-10-26T07:37:47;10.30;99.90
9772;DHT22;4925;52.588;13.370;2022-10-26T07:40:13;10.40;99.90
9772;DHT22;4925;52.588;13.370;2022-10-26T07:42:39;10.40;99.90
9772;DHT22;4925;52.588;13.370;2022-10-26T07:45:04;10.40;99.90
9772;DHT22;4925;52.588;13.370;2022-10-26T07:47:30;10.50;99.90
9772;DHT22;4925;52.588;13.370;2022-10-26T07:49:56;10.60;99.90
9772;DHT22;4925;52.588;13.370;2022-10-26T07:52:21;10.70;99.90
9772;DHT22;4925;52.588;13.370;2022-10-26T07:54:47;10.70;99.90
9772;DHT22;4925;52.588;13.370;2022-10-26T07:57:14;10.80;99.90
9772;DHT22;4925;52.588;13.370;2022-10-26T07:59:40;10.90;99.90
9772;DHT22;4925;52.588;13.370;2022-10-26T08:02:07;11.00;99.90
9772;DHT22;4925;52.588;13.370;2022-10-26T08:04:33;11.10;99.90
9772;DHT22;4925;52.588;13.370;2022-10-26T08:06:59;11.10;99.90
9772;DHT22;4925;52.588;13.370;2022-10-26T08:09:24;11.20;99.90
9772;DHT22;4925;52.588;13.370;2022-10-26T08:11:50;11.30;99.90
9772;DHT22;4925;52.588;13.370;2022-10-26T08:14:15;11.40;99.90
9772;DHT22;4925;52.588;13.370;2022-10-26T08:16:41;11.70;99.90
9772;DHT22;4925;52.588;13.370;2022-10-26T08:19:06;11.50;99.90
9772;DHT22;4925;52.588;13.370;2022-10-26T08:21:32;11.60;99.90
9772;DHT22;4925;52.588;13.370;2022-10-26T08:23:58;11.80;99.90
9772;DHT22;4925;52.588;13.370;2022-10-26T08:26:23;11.90;99.90
9772;DHT22;4925;52.588;13.370;2022-10-26T08:28:49;12.00;99.90
9772;DHT22;4925;52.588;13.370;2022-10-26T08:31:14;12.10;99.90
9772;DHT22;4925;52.588;13.370;2022-10-26T08:33:40;12.30;99.90
9772;DHT22;4925;52.588;13.370;2022-10-26T08:36:06;12.30;99.90
9772;DHT22;4925;52.588;13.370;2022-10-26T08:38:32;12.40;99.90
9772;DHT22;4925;52.588;13.370;2022-10-26T08:41:06;12.50;99.90
9772;DHT22;4925;52.588;13.370;2022-10-26T08:43:48;12.60;99.90
9772;DHT22;4925;52.588;13.370;2022-10-26T08:46:35;12.80;99.90
9772;DHT22;4925;52.588;13.370;2022-10-26T08:51:40;13.00;99.90
9772;DHT22;4925;52.588;13.370;2022-10-26T08:54:17;13.10;99.90
9772;DHT22;4925;52.588;13.370;2022-10-26T08:56:46;13.30;99.90
9772;DHT22;4925;52.588;13.370;2022-10-26T08:59:39;13.40;99.90
9772;DHT22;4925;52.588;13.370;2022-10-26T09:02:14;13.50;99.90
9772;DHT22;4925;52.588;13.370;2022-10-26T09:04:40;13.70;99.90
9772;DHT22;4925;52.588;13.370;2022-10-26T09:07:31;13.80;99.90
9772;DHT22;4925;52.588;13.370;2022-10-26T09:16:02;14.20;99.90
9772;DHT22;4925;52.588;13.370;2022-10-26T09:24:15;14.60;99.90
9772;DHT22;4925;52.588;13.370;2022-10-26T09:27:19;14.70;99.90
9772;DHT22;4925;52.588;13.370;2022-10-26T09:29:47;14.80;99.90
9772;DHT22;4925;52.588;13.370;2022-10-26T09:32:24;14.90;99.90
9772;DHT22;4925;52.588;13.370;2022-10-26T09:35:27;15.10;99.90
9772;DHT22;4925;52.588;13.370;2022-10-26T09:38:04;15.10;99.90
9772;DHT22;4925;52.588;13.370;2022-10-26T09:41:00;15.20;99.90
9772;DHT22;4925;52.588;13.370;2022-10-26T09:43:42;15.30;99.90
9772;DHT22;4925;52.588;13.370;2022-10-26T09:46:15;15.40;99.90
9772;DHT22;4925;52.588;13.370;2022-10-26T09:48:57;15.50;99.90
9772;DHT22;4925;52.588;13.370;2022-10-26T09:51:23;15.60;99.90
9772;DHT22;4925;52.588;13.370;2022-10-26T09:53:52;15.70;99.90
9772;DHT22;4925;52.588;13.370;2022-10-26T09:56:18;15.80;99.90
9772;DHT22;4925;52.588;13.370;2022-10-26T09:58:53;15.90;99.90
9772;DHT22;4925;52.588;13.370;2022-10-26T10:06:41;16.10;99.90
9772;DHT22;4925;52.588;13.370;2022-10-26T10:09:14;16.30;99.90
9772;DHT22;4925;52.588;13.370;2022-10-26T10:11:51;16.40;99.90
9772;DHT22;4925;52.588;13.370;2022-10-26T10:14:36;16.40;99.90
9772;DHT22;4925;52.588;13.370;2022-10-26T10:17:14;16.50;99.90
9772;DHT22;4925;52.588;13.370;2022-10-26T10:19:43;16.60;99.90
9772;DHT22;4925;52.588;13.370;2022-10-26T10:25:00;16.70;99.90
9772;DHT22;4925;52.588;13.370;2022-10-26T10:27:27;16.60;99.90
9772;DHT22;4925;52.588;13.370;2022-10-26T10:29:55;16.70;99.90
9772;DHT22;4925;52.588;13.370;2022-10-26T10:32:24;16.70;99.90
9772;DHT22;4925;52.588;13.370;2022-10-26T10:34:56;16.70;99.90
9772;DHT22;4925;52.588;13.370;2022-10-26T10:37:33;16.70;99.90
9772;DHT22;4925;52.588;13.370;2022-10-26T10:40:06;16.60;99.90
9772;DHT22;4925;52.588;13.370;2022-10-26T10:42:34;16.70;99.90
9772;DHT22;4925;52.588;13.370;2022-10-26T10:45:02;16.90;99.90
9772;DHT22;4925;52.588;13.370;2022-10-26T10:47:31;16.80;99.90
9772;DHT22;4925;52.588;13.370;2022-10-26T10:52:33;16.90;99.90
9772;DHT22;4925;52.588;13.370;2022-10-26T10:55:20;17.00;99.90
9772;DHT22;4925;52.588;13.370;2022-10-26T10:58:43;16.90;99.90
9772;DHT22;4925;52.588;13.370;2022-10-26T11:00:59;17.10;99.90
9772;DHT22;4925;52.588;13.370;2022-10-26T11:06:24;17.20;99.90
9772;DHT22;4925;52.588;13.370;2022-10-26T11:09:03;17.40;99.90
9772;DHT22;4925;52.588;13.370;2022-10-26T11:11:38;17.40;99.90
9772;DHT22;4925;52.588;13.370;2022-10-26T11:14:12;17.60;99.90
9772;DHT22;4925;52.588;13.370;2022-10-26T11:16:45;17.70;99.90
9772;DHT22;4925;52.588;13.370;2022-10-26T11:21:52;17.80;99.90
9772;DHT22;4925;52.588;13.370;2022-10-26T11:24:29;17.80;99.90
9772;DHT22;4925;52.588;13.370;2022-10-26T11:27:15;17.70;99.90
9772;DHT22;4925;52.588;13.370;2022-10-26T11:29:57;17.90;99.90
9772;DHT22;4925;52.588;13.370;2022-10-26T11:32:34;18.00;99.90
9772;DHT22;4925;52.588;13.370;2022-10-26T11:37:52;18.10;99.90
9772;DHT22;4925;52.588;13.370;2022-10-26T11:43:42;18.20;99.90
9772;DHT22;4925;52.588;13.370;2022-10-26T11:46:17;18.30;99.90
9772;DHT22;4925;52.588;13.370;2022-10-26T11:49:10;18.50;99.90
9772;DHT22;4925;52.588;13.370;2022-10-26T11:57:00;18.70;99.90
9772;DHT22;4925;52.588;13.370;2022-10-26T11:59:31;18.90;99.90
9772;DHT22;4925;52.588;13.370;2022-10-26T12:02:05;19.00;99.90
9772;DHT22;4925;52.588;13.370;2022-10-26T12:04:36;19.10;99.90
9772;DHT22;4925;52.588;13.370;2022-10-26T12:07:08;19.40;99.90
9772;DHT22;4925;52.588;13.370;2022-10-26T12:09:37;19.60;99.90
9772;DHT22;4925;52.588;13.370;2022-10-26T12:12:19;19.80;99.90
9772;DHT22;4925;52.588;13.370;2022-10-26T12:23:32;20.30;99.90
9772;DHT22;4925;52.588;13.370;2022-10-26T12:33:57;20.40;99.90
9772;DHT22;4925;52.588;13.370;2022-10-26T12:47:06;21.10;99.90
9772;DHT22;4925;52.588;13.370;2022-10-26T12:50:01;21.20;99.90
9772;DHT22;4925;52.588;13.370;2022-10-26T12:52:53;21.40;99.90
9772;DHT22;4925;52.588;13.370;2022-10-26T13:06:15;22.00;99.90
9772;DHT22;4925;52.588;13.370;2022-10-26T13:08:53;21.80;99.90
9772;DHT22;4925;52.588;13.370;2022-10-26T13:11:25;21.50;99.90
9772;DHT22;4925;52.588;13.370;2022-10-26T13:13:55;21.40;99.90
9772;DHT22;4925;52.588;13.370;2022-10-26T13:16:25;21.30;99.90
9772;DHT22;4925;52.588;13.370;2022-10-26T13:18:51;21.20;99.90
9772;DHT22;4925;52.588;13.370;2022-10-26T13:21:18;21.00;99.90
9772;DHT22;4925;52.588;13.370;2022-10-26T13:26:23;20.60;99.90
9772;DHT22;4925;52.588;13.370;2022-10-26T13:36:58;20.30;99.90
9772;DHT22;4925;52.588;13.370;2022-10-26T13:39:42;20.30;99.90
9772;DHT22;4925;52.588;13.370;2022-10-26T13:42:14;20.20;99.90
9772;DHT22;4925;52.588;13.370;2022-10-26T13:47:48;19.90;99.90
9772;DHT22;4925;52.588;13.370;2022-10-26T13:50:18;19.70;99.90
9772;DHT22;4925;52.588;13.370;2022-10-26T13:52:52;19.70;99.90
9772;DHT22;4925;52.588;13.370;2022-10-26T13:55:23;19.60;99.90
9772;DHT22;4925;52.588;13.370;2022-10-26T14:01:01;19.50;99.90
9772;DHT22;4925;52.588;13.370;2022-10-26T14:03:27;19.60;99.90
9772;DHT22;4925;52.588;13.370;2022-10-26T14:05:53;19.60;99.90
9772;DHT22;4925;52.588;13.370;2022-10-26T14:08:19;19.60;99.90
9772;DHT22;4925;52.588;13.370;2022-10-26T14:10:51;19.70;99.90
9772;DHT22;4925;52.588;13.370;2022-10-26T14:13:20;19.70;99.90
9772;DHT22;4925;52.588;13.370;2022-10-26T14:15:46;19.80;99.90
9772;DHT22;4925;52.588;13.370;2022-10-26T14:18:24;19.80;99.90
9772;DHT22;4925;52.588;13.370;2022-10-26T14:23:35;19.80;99.90
9772;DHT22;4925;52.588;13.370;2022-10-26T14:26:03;19.90;99.90
9772;DHT22;4925;52.588;13.370;2022-10-26T14:28:31;19.90;99.90
9772;DHT22;4925;52.588;13.370;2022-10-26T14:31:17;19.70;99.90
9772;DHT22;4925;52.588;13.370;2022-10-26T14:33:44;19.40;99.90
9772;DHT22;4925;52.588;13.370;2022-10-26T14:36:10;19.30;99.90
9772;DHT22;4925;52.588;13.370;2022-10-26T14:38:42;19.10;99.90
9772;DHT22;4925;52.588;13.370;2022-10-26T14:41:10;19.00;99.90
9772;DHT22;4925;52.588;13.370;2022-10-26T14:43:36;18.90;99.90
9772;DHT22;4925;52.588;13.370;2022-10-26T14:46:01;18.90;99.90
9772;DHT22;4925;52.588;13.370;2022-10-26T14:48:30;18.90;99.90
9772;DHT22;4925;52.588;13.370;2022-10-26T14:51:20;18.90;99.90
9772;DHT22;4925;52.588;13.370;2022-10-26T14:53:51;18.80;99.90
9772;DHT22;4925;52.588;13.370;2022-10-26T14:56:24;18.80;99.90
9772;DHT22;4925;52.588;13.370;2022-10-26T14:58:50;18.80;99.90
9772;DHT22;4925;52.588;13.370;2022-10-26T15:01:25;18.70;99.90
9772;DHT22;4925;52.588;13.370;2022-10-26T15:04:03;18.60;99.90
9772;DHT22;4925;52.588;13.370;2022-10-26T15:06:35;18.60;99.90
9772;DHT22;4925;52.588;13.370;2022-10-26T15:09:03;18.50;99.90
9772;DHT22;4925;52.588;13.370;2022-10-26T15:11:32;18.50;99.90
9772;DHT22;4925;52.588;13.370;2022-10-26T15:13:58;18.50;99.90
9772;DHT22;4925;52.588;13.370;2022-10-26T15:16:32;18.50;99.90
9772;DHT22;4925;52.588;13.370;2022-10-26T15:19:10;18.40;99.90
9772;DHT22;4925;52.588;13.370;2022-10-26T15:21:37;18.20;99.90
9772;DHT22;4925;52.588;13.370;2022-10-26T15:24:31;18.10;99.90
9772;DHT22;4925;52.588;13.370;2022-10-26T15:26:57;17.90;99.90
9772;DHT22;4925;52.588;13.370;2022-10-26T15:29:37;17.80;99.90
9772;DHT22;4925;52.588;13.370;2022-10-26T15:32:04;17.70;99.90
9772;DHT22;4925;52.588;13.370;2022-10-26T15:34:30;17.70;99.90
9772;DHT22;4925;52.588;13.370;2022-10-26T15:36:56;17.60;99.90
9772;DHT22;4925;52.588;13.370;2022-10-26T15:39:21;17.50;99.90
9772;DHT22;4925;52.588;13.370;2022-10-26T15:41:47;17.40;99.90
9772;DHT22;4925;52.588;13.370;2022-10-26T15:44:17;17.40;99.90
9772;DHT22;4925;52.588;13.370;2022-10-26T15:46:43;17.40;99.90
9772;DHT22;4925;52.588;13.370;2022-10-26T15:49:19;17.30;99.90
9772;DHT22;4925;52.588;13.370;2022-10-26T15:51:46;17.20;99.90
9772;DHT22;4925;52.588;13.370;2022-10-26T15:54:13;17.20;99.90
9772;DHT22;4925;52.588;13.370;2022-10-26T15:56:38;17.10;99.90
9772;DHT22;4925;52.588;13.370;2022-10-26T15:59:14;17.10;99.90
9772;DHT22;4925;52.588;13.370;2022-10-26T16:01:40;17.10;99.90
9772;DHT22;4925;52.588;13.370;2022-10-26T16:04:07;17.00;99.90
9772;DHT22;4925;52.588;13.370;2022-10-26T16:06:33;17.00;99.90
9772;DHT22;4925;52.588;13.370;2022-10-26T16:09:02;17.00;99.90
9772;DHT22;4925;52.588;13.370;2022-10-26T16:11:28;16.90;99.90
9772;DHT22;4925;52.588;13.370;2022-10-26T16:13:54;16.90;99.90
9772;DHT22;4925;52.588;13.370;2022-10-26T16:16:20;16.80;99.90
9772;DHT22;4925;52.588;13.370;2022-10-26T16:18:46;16.80;99.90
9772;DHT22;4925;52.588;13.370;2022-10-26T16:21:15;16.70;99.90
9772;DHT22;4925;52.588;13.370;2022-10-26T16:23:45;16.70;99.90
9772;DHT22;4925;52.588;13.370;2022-10-26T16:26:10;16.60;99.90
9772;DHT22;4925;52.588;13.370;2022-10-26T16:28:36;16.50;99.90
9772;DHT22;4925;52.588;13.370;2022-10-26T16:31:13;16.50;99.90
9772;DHT22;4925;52.588;13.370;2022-10-26T16:33:39;16.90;99.90
9772;DHT22;4925;52.588;13.370;2022-10-26T16:36:07;16.40;99.90
9772;DHT22;4925;52.588;13.370;2022-10-26T16:38:33;16.40;99.90
9772;DHT22;4925;52.588;13.370;2022-10-26T16:41:05;16.40;99.90
9772;DHT22;4925;52.588;13.370;2022-10-26T16:43:33;16.30;99.90
9772;DHT22;4925;52.588;13.370;2022-10-26T16:45:59;16.50;99.90
9772;DHT22;4925;52.588;13.370;2022-10-26T16:48:28;16.30;99.90
9772;DHT22;4925;52.588;13.370;2022-10-26T16:51:10;16.20;99.90
9772;DHT22;4925;52.588;13.370;2022-10-26T16:53:37;16.20;99.90
9772;DHT22;4925;52.588;13.370;2022-10-26T16:56:04;16.20;99.90
9772;DHT22;4925;52.588;13.370;2022-10-26T16:58:31;16.10;99.90
9772;DHT22;4925;52.588;13.370;2022-10-26T17:00:56;16.10;99.90
9772;DHT22;4925;52.588;13.370;2022-10-26T17:03:22;16.10;99.90
9772;DHT22;4925;52.588;13.370;2022-10-26T17:06:00;16.00;99.90
9772;DHT22;4925;52.588;13.370;2022-10-26T17:08:26;16.00;99.90
9772;DHT22;4925;52.588;13.370;2022-10-26T17:10:53;16.00;99.90
9772;DHT22;4925;52.588;13.370;2022-10-26T17:13:20;15.90;99.90
9772;DHT22;4925;52.588;13.370;2022-10-26T17:15:45;16.00;99.90
9772;DHT22;4925;52.588;13.370;2022-10-26T17:18:11;15.90;99.90
9772;DHT22;4925;52.588;13.370;2022-10-26T17:20:38;15.80;99.90
9772;DHT22;4925;52.588;13.370;2022-10-26T17:23:05;15.90;99.90
9772;DHT22;4925;52.588;13.370;2022-10-26T17:25:34;16.00;99.90
9772;DHT22;4925;52.588;13.370;2022-10-26T17:28:01;15.90;99.90
9772;DHT22;4925;52.588;13.370;2022-10-26T17:30:27;15.90;99.90
9772;DHT22;4925;52.588;13.370;2022-10-26T17:32:53;15.90;99.90
9772;DHT22;4925;52.588;13.370;2022-10-26T17:35:19;15.90;99.90
9772;DHT22;4925;52.588;13.370;2022-10-26T17:37:44;15.90;99.90
9772;DHT22;4925;52.588;13.370;2022-10-26T17:40:10;15.90;99.90
9772;DHT22;4925;52.588;13.370;2022-10-26T17:42:36;15.90;99.90
9772;DHT22;4925;52.588;13.370;2022-10-26T17:45:02;15.90;99.90
9772;DHT22;4925;52.588;13.370;2022-10-26T17:47:27;15.90;99.90
9772;DHT22;4925;52.588;13.370;2022-10-26T17:49:53;15.90;99.90
9772;DHT22;4925;52.588;13.370;2022-10-26T17:52:18;15.90;99.90
9772;DHT22;4925;52.588;13.370;2022-10-26T17:54:44;15.90;99.90
9772;DHT22;4925;52.588;13.370;2022-10-26T17:57:09;15.90;99.90
9772;DHT22;4925;52.588;13.370;2022-10-26T17:59:35;15.90;99.90
9772;DHT22;4925;52.588;13.370;2022-10-26T18:02:00;15.90;99.90
9772;DHT22;4925;52.588;13.370;2022-10-26T18:04:26;15.90;99.90
9772;DHT22;4925;52.588;13.370;2022-10-26T18:06:51;15.80;99.90
9772;DHT22;4925;52.588;13.370;2022-10-26T18:09:17;15.80;99.90
9772;DHT22;4925;52.588;13.370;2022-10-26T18:11:43;15.80;99.90
9772;DHT22;4925;52.588;13.370;2022-10-26T18:14:09;15.80;99.90
9772;DHT22;4925;52.588;13.370;2022-10-26T18:16:35;15.80;99.90
9772;DHT22;4925;52.588;13.370;2022-10-26T18:19:02;15.80;99.90
9772;DHT22;4925;52.588;13.370;2022-10-26T18:21:30;15.80;99.90
9772;DHT22;4925;52.588;13.370;2022-10-26T18:23:56;15.80;99.90
9772;DHT22;4925;52.588;13.370;2022-10-26T18:26:24;15.80;99.90
9772;DHT22;4925;52.588;13.370;2022-10-26T18:28:50;15.80;99.90
9772;DHT22;4925;52.588;13.370;2022-10-26T18:31:19;15.70;99.90
9772;DHT22;4925;52.588;13.370;2022-10-26T18:33:45;15.80;99.90
9772;DHT22;4925;52.588;13.370;2022-10-26T18:36:12;15.80;99.90
9772;DHT22;4925;52.588;13.370;2022-10-26T18:38:38;15.80;99.90